createdAt,value
2019-04-04T00:00:10.910Z,99794.46
2019-04-04T00:02:43.293Z,99780.28
2019-04-04T00:05:11.019Z,99768.39
2019-04-04T00:07:38.807Z,99744.51
2019-04-04T00:10:06.602Z,99765.44
2019-04-04T00:12:34.318Z,99765.09
2019-04-04T00:15:02.067Z,99775.79
2019-04-04T00:17:29.779Z,99772.02
2019-04-04T00:19:58.962Z,99770.14
2019-04-04T00:22:26.917Z,99752.60
2019-04-04T00:24:54.635Z,99760.38
2019-04-04T00:27:22.426Z,99748.73
2019-04-04T00:29:50.132Z,99759.36
2019-04-04T00:32:20.636Z,99777.23
2019-04-04T00:34:47.273Z,99781.76
2019-04-04T00:37:15.002Z,99781.28
2019-04-04T00:39:53.161Z,99751.97
2019-04-04T00:42:17.048Z,99731.84
2019-04-04T00:44:43.999Z,99706.60
2019-04-04T00:47:11.712Z,99691.98
2019-04-04T00:49:39.461Z,99688.93
2019-04-04T00:52:09.948Z,99671.75
2019-04-04T00:54:36.611Z,99707.12
2019-04-04T00:57:04.353Z,99729.23
2019-04-04T00:59:32.115Z,99737.14
2019-04-04T01:01:59.830Z,99745.86
2019-04-04T01:04:30.762Z,99736.97
2019-04-04T01:06:56.990Z,99709.79
2019-04-04T01:09:24.704Z,99719.88
2019-04-04T01:11:52.410Z,99716.53
2019-04-04T01:14:20.138Z,99712.90
2019-04-04T01:16:47.843Z,99703.95
2019-04-04T01:19:15.561Z,99706.61
2019-04-04T01:21:43.342Z,99704.37
2019-04-04T01:24:15.390Z,99716.25
2019-04-04T01:26:40.614Z,99729.56
2019-04-04T01:29:10.402Z,99733.97
2019-04-04T01:31:37.854Z,99726.33
2019-04-04T01:34:05.591Z,99727.45
2019-04-04T01:36:33.338Z,99721.59
2019-04-04T01:39:01.043Z,99715.90
2019-04-04T01:41:28.771Z,99719.64
2019-04-04T01:44:04.938Z,99712.70
2019-04-04T01:46:25.911Z,99718.87
2019-04-04T01:48:53.622Z,99721.59
2019-04-04T01:51:23.234Z,99725.71
2019-04-04T01:53:50.778Z,99719.56
2019-04-04T01:56:18.512Z,99714.94
2019-04-04T01:58:46.343Z,99709.52
2019-04-04T02:01:16.337Z,99705.98
2019-04-04T02:03:45.368Z,99694.79
2019-04-04T02:06:15.431Z,99688.42
2019-04-04T02:08:43.162Z,99679.44
2019-04-04T02:11:10.910Z,99668.12
2019-04-04T02:13:38.944Z,99662.48
2019-04-04T02:16:08.059Z,99675.12
2019-04-04T02:18:36.699Z,99668.46
2019-04-04T02:21:04.678Z,99662.75
2019-04-04T02:23:32.419Z,99662.75
2019-04-04T02:26:00.150Z,99655.38
2019-04-04T02:28:27.855Z,99655.50
2019-04-04T02:30:55.849Z,99644.88
2019-04-04T02:33:23.572Z,99642.63
2019-04-04T02:35:51.301Z,99653.30
2019-04-04T02:38:19.313Z,99589.27
2019-04-04T02:40:47.082Z,99655.12
2019-04-04T02:43:14.793Z,99650.66
2019-04-04T02:45:49.436Z,99646.23
2019-04-04T02:48:17.151Z,99634.17
2019-04-04T02:50:44.941Z,99627.59
2019-04-04T02:53:12.642Z,99614.49
2019-04-04T02:55:40.383Z,99614.55
2019-04-04T02:58:08.135Z,99611.81
2019-04-04T03:00:35.927Z,99613.86
2019-04-04T03:03:08.067Z,99622.13
2019-04-04T03:05:33.224Z,99626.75
2019-04-04T03:08:04.274Z,99624.85
2019-04-04T03:10:30.703Z,99624.44
2019-04-04T03:12:59.444Z,99618.55
2019-04-04T03:15:27.275Z,99618.41
2019-04-04T03:17:55.001Z,99623.80
2019-04-04T03:20:22.720Z,99634.30
2019-04-04T03:22:50.437Z,99638.83
2019-04-04T03:25:25.603Z,99631.53
2019-04-04T03:27:48.995Z,99626.52
2019-04-04T03:30:17.485Z,99629.02
2019-04-04T03:32:51.884Z,99639.71
2019-04-04T03:35:15.389Z,99645.83
2019-04-04T03:37:46.055Z,99652.73
2019-04-04T03:40:12.529Z,99665.13
2019-04-04T03:42:43.969Z,99669.02
2019-04-04T03:45:09.691Z,99672.87
2019-04-04T03:47:37.391Z,99672.79
2019-04-04T03:50:05.222Z,99678.62
2019-04-04T03:52:32.928Z,99685.00
2019-04-04T03:55:00.640Z,99689.30
2019-04-04T03:57:28.427Z,99682.70
2019-04-04T03:59:56.155Z,99681.63
2019-04-04T04:02:23.926Z,99688.02
2019-04-04T04:05:00.880Z,99694.72
2019-04-04T04:07:28.690Z,99705.84
2019-04-04T04:09:59.331Z,99695.75
2019-04-04T04:12:26.099Z,99707.20
2019-04-04T04:14:55.020Z,99704.91
2019-04-04T04:17:23.050Z,99711.48
2019-04-04T04:19:50.766Z,99694.19
2019-04-04T04:22:19.459Z,99678.03
2019-04-04T04:24:47.331Z,99679.45
2019-04-04T04:27:15.824Z,99677.48
2019-04-04T04:29:45.423Z,99674.82
2019-04-04T04:32:13.167Z,99680.97
2019-04-04T04:34:41.030Z,99692.09
2019-04-04T04:37:08.731Z,99670.97
2019-04-04T04:39:40.975Z,99697.60
2019-04-04T04:42:16.467Z,99697.40
2019-04-04T04:44:44.205Z,99707.92
2019-04-04T04:47:12.156Z,99688.69
2019-04-04T04:49:41.704Z,99680.18
2019-04-04T04:52:09.482Z,99683.34
2019-04-04T04:54:37.218Z,99692.03
2019-04-04T04:57:05.521Z,99691.97
2019-04-04T04:59:33.568Z,99691.98
2019-04-04T05:02:01.468Z,99679.11
2019-04-04T05:04:29.192Z,99669.63
2019-04-04T05:06:56.916Z,99674.42
2019-04-04T05:09:24.678Z,99691.49
2019-04-04T05:11:52.856Z,99717.70
2019-04-04T05:14:20.723Z,99734.14
2019-04-04T05:20:48.883Z,99720.25
2019-04-04T05:23:46.999Z,99718.75
2019-04-04T05:25:54.286Z,99726.11
2019-04-04T05:28:23.311Z,99735.57
2019-04-04T05:30:51.132Z,99733.02
2019-04-04T05:33:18.840Z,99726.17
2019-04-04T05:35:46.547Z,99719.86
2019-04-04T05:38:14.259Z,99721.76
2019-04-04T05:40:41.984Z,99723.63
2019-04-04T05:43:09.741Z,99722.38
2019-04-04T05:45:39.253Z,99726.40
2019-04-04T05:48:11.198Z,99720.22
2019-04-04T05:50:38.996Z,99712.77
2019-04-04T05:53:06.705Z,99721.70
2019-04-04T05:55:34.408Z,99721.31
2019-04-04T05:58:03.119Z,99729.05
2019-04-04T06:00:30.855Z,99726.55
2019-04-04T06:02:58.621Z,99735.53
2019-04-04T06:05:27.319Z,99739.08
2019-04-04T06:07:55.614Z,99734.66
2019-04-04T06:10:23.575Z,99722.80
2019-04-04T06:12:51.331Z,99716.77
2019-04-04T06:15:19.040Z,99717.17
2019-04-04T06:17:46.759Z,99716.56
2019-04-04T06:20:15.080Z,99717.06
2019-04-04T06:22:43.413Z,99716.55
2019-04-04T06:25:18.415Z,99723.02
2019-04-04T06:27:46.140Z,99727.33
2019-04-04T06:30:14.980Z,99722.47
2019-04-04T06:32:42.687Z,99719.05
2019-04-04T06:35:10.399Z,99686.17
2019-04-04T06:37:38.760Z,99727.16
2019-04-04T06:40:06.814Z,99724.77
2019-04-04T06:42:36.009Z,99727.37
2019-04-04T06:45:04.393Z,99728.88
2019-04-04T06:47:32.509Z,99687.77
2019-04-04T06:50:00.402Z,99615.95
2019-04-04T06:52:28.110Z,99720.36
2019-04-04T06:54:58.035Z,99705.75
2019-04-04T06:57:26.325Z,99676.13
2019-04-04T07:00:00.384Z,99692.19
2019-04-04T07:02:27.761Z,99703.86
2019-04-04T07:04:55.502Z,99696.78
2019-04-04T07:07:23.217Z,99687.10
2019-04-04T07:09:51.029Z,99693.83
2019-04-04T07:12:23.539Z,99689.45
2019-04-04T07:14:49.553Z,99688.06
2019-04-04T07:17:17.478Z,99608.80
2019-04-04T07:19:46.268Z,99592.80
2019-04-04T07:22:14.537Z,99699.38
2019-04-04T07:24:42.235Z,99707.98
2019-04-04T07:27:09.950Z,99720.11
2019-04-04T07:39:34.312Z,99740.83
2019-04-04T07:42:02.010Z,99734.52
2019-04-04T07:44:29.741Z,99739.59
2019-04-04T07:46:57.572Z,99756.45
2019-04-04T07:49:25.296Z,99749.84
2019-04-04T07:51:53.022Z,99742.74
2019-04-04T07:54:20.744Z,99735.38
2019-04-04T07:56:48.927Z,99723.17
2019-04-04T07:59:16.754Z,99719.36
2019-04-04T08:01:50.862Z,99701.98
2019-04-04T08:04:13.911Z,99697.88
2019-04-04T08:06:41.649Z,99702.52
2019-04-04T08:09:09.419Z,99709.06
2019-04-04T08:11:37.140Z,99704.42
2019-04-04T08:14:04.895Z,99702.83
2019-04-04T08:16:40.229Z,99704.84
2019-04-04T08:19:08.029Z,99697.03
2019-04-04T08:21:35.736Z,99682.59
2019-04-04T08:24:03.503Z,99690.04
2019-04-04T08:26:31.273Z,99695.55
2019-04-04T08:28:59.107Z,99688.65
2019-04-04T08:31:26.815Z,99695.44
2019-04-04T08:33:54.562Z,99703.27
2019-04-04T08:36:22.247Z,99702.58
2019-04-04T08:38:49.990Z,99704.06
2019-04-04T08:41:17.723Z,99718.83
2019-04-04T08:43:45.507Z,99719.45
2019-04-04T08:46:13.223Z,99661.56
2019-04-04T08:48:40.924Z,99706.61
2019-04-04T08:51:08.643Z,99731.87
2019-04-04T08:53:40.332Z,99746.14
2019-04-04T08:56:13.146Z,99759.10
2019-04-04T08:58:40.864Z,99759.48
2019-04-04T09:01:08.584Z,99751.05
2019-04-04T09:03:36.299Z,99745.02
2019-04-04T09:06:04.050Z,99741.92
2019-04-04T09:08:31.778Z,99640.61
2019-04-04T09:10:59.495Z,99755.69
2019-04-04T09:13:27.228Z,99740.67
2019-04-04T09:15:54.925Z,99749.39
2019-04-04T09:18:22.655Z,99752.10
2019-04-04T09:20:50.358Z,99759.52
2019-04-04T09:23:18.091Z,99760.27
2019-04-04T09:25:45.895Z,99769.25
2019-04-04T09:28:13.658Z,99772.81
2019-04-04T09:30:41.366Z,99771.66
2019-04-04T09:33:09.203Z,99775.96
2019-04-04T09:35:36.937Z,99779.53
2019-04-04T09:38:11.545Z,99773.91
2019-04-04T09:40:39.247Z,99777.12
2019-04-04T09:43:06.962Z,99776.94
2019-04-04T09:45:34.698Z,99763.41
2019-04-04T09:48:02.411Z,99719.47
2019-04-04T09:50:30.125Z,99760.91
2019-04-04T09:52:57.839Z,99762.08
2019-04-04T09:55:25.624Z,99763.28
2019-04-04T09:57:53.328Z,99693.44
2019-04-04T10:00:22.395Z,99768.07
2019-04-04T10:02:50.151Z,99759.33
2019-04-04T10:05:17.870Z,99696.64
2019-04-04T10:07:45.583Z,99746.97
2019-04-04T10:10:14.937Z,99750.05
2019-04-04T10:12:42.633Z,99755.09
2019-04-04T10:15:10.349Z,99743.22
2019-04-04T10:17:44.638Z,99739.99
2019-04-04T10:20:12.029Z,99744.91
2019-04-04T10:22:39.777Z,99743.16
2019-04-04T10:25:07.842Z,99755.51
2019-04-04T10:27:35.556Z,99550.11
2019-04-04T10:30:03.623Z,99664.16
2019-04-04T10:32:31.461Z,99753.23
2019-04-04T10:34:59.169Z,99759.66
2019-04-04T10:37:26.871Z,99751.20
2019-04-04T10:39:54.598Z,99712.32
2019-04-04T10:42:22.305Z,99748.11
2019-04-04T10:44:50.028Z,99751.61
2019-04-04T10:47:17.816Z,99753.36
2019-04-04T10:49:45.536Z,99743.22
2019-04-04T10:52:13.247Z,99685.98
2019-04-04T10:54:40.982Z,99745.45
2019-04-04T10:57:10.959Z,99751.59
2019-04-04T10:59:43.527Z,99747.38
2019-04-04T11:02:08.730Z,99732.30
2019-04-04T11:04:36.459Z,99734.32
2019-04-04T11:07:04.246Z,99732.63
2019-04-04T11:09:41.284Z,99623.27
2019-04-04T11:12:01.395Z,99742.13
2019-04-04T11:14:29.115Z,99742.87
2019-04-04T11:16:56.894Z,99744.27
2019-04-04T11:19:31.058Z,99748.79
2019-04-04T11:21:54.086Z,99746.50
2019-04-04T11:24:21.787Z,99753.08
2019-04-04T11:26:49.506Z,99748.63
2019-04-04T11:29:17.231Z,99742.87
2019-04-04T11:31:45.038Z,99737.77
2019-04-04T11:34:12.764Z,99736.77
2019-04-04T11:36:42.432Z,99731.06
2019-04-04T11:39:17.059Z,99739.05
2019-04-04T11:41:44.773Z,99742.00
2019-04-04T11:44:12.498Z,99753.60
2019-04-04T11:46:40.216Z,99753.88
2019-04-04T11:49:07.940Z,99750.05
2019-04-04T11:51:35.668Z,99756.80
2019-04-04T11:54:03.375Z,99764.47
2019-04-04T11:56:31.091Z,99772.38
2019-04-04T11:58:58.806Z,99766.99
2019-04-04T12:01:27.451Z,99767.00
2019-04-04T12:03:55.190Z,99764.16
2019-04-04T12:06:22.907Z,99779.52
2019-04-04T12:08:50.630Z,99781.34
2019-04-04T12:11:18.385Z,99781.50
2019-04-04T12:13:46.304Z,99783.70
2019-04-04T12:16:14.024Z,99780.48
2019-04-04T12:18:50.222Z,99793.53
2019-04-04T12:21:17.007Z,99794.87
2019-04-04T12:23:44.816Z,99803.57
2019-04-04T12:26:12.618Z,99802.63
2019-04-04T12:28:40.330Z,99803.92
2019-04-04T12:31:08.079Z,99804.47
2019-04-04T12:33:35.797Z,99799.33
2019-04-04T12:36:03.534Z,99800.56
2019-04-04T12:38:31.343Z,99796.94
2019-04-04T12:40:59.054Z,99796.84
2019-04-04T12:43:27.016Z,99786.61
2019-04-04T12:45:54.767Z,99794.45
2019-04-04T12:48:22.499Z,99789.58
2019-04-04T12:50:50.237Z,99787.27
2019-04-04T12:53:17.945Z,99783.96
2019-04-04T12:55:45.672Z,99776.56
2019-04-04T12:58:21.043Z,99782.50
2019-04-04T13:00:48.773Z,99603.84
2019-04-04T13:03:16.474Z,99764.44
2019-04-04T13:05:44.187Z,99756.59
2019-04-04T13:08:11.927Z,99765.11
2019-04-04T13:10:39.659Z,99770.16
2019-04-04T13:13:07.419Z,99770.70
2019-04-04T13:15:35.150Z,99758.69
2019-04-04T13:18:02.887Z,99757.03
2019-04-04T13:20:30.608Z,99756.94
2019-04-04T13:22:58.340Z,99763.16
2019-04-04T13:25:26.075Z,99761.70
2019-04-04T13:27:53.824Z,99773.09
2019-04-04T13:30:21.531Z,99774.91
2019-04-04T13:32:49.263Z,99700.96
2019-04-04T13:35:17.000Z,99786.21
2019-04-04T13:37:44.727Z,99781.81
2019-04-04T13:40:22.935Z,99785.75
2019-04-04T13:42:52.727Z,99779.96
2019-04-04T13:45:20.183Z,99781.77
2019-04-04T13:47:47.907Z,99784.08
2019-04-04T13:50:19.507Z,99788.52
2019-04-04T13:52:45.112Z,99788.13
2019-04-04T13:55:12.852Z,99790.94
2019-04-04T13:57:40.552Z,99783.28
2019-04-04T14:00:08.351Z,99761.30
2019-04-04T14:02:36.094Z,99785.67
2019-04-04T14:05:10.655Z,99784.90
2019-04-04T14:07:34.099Z,99779.57
2019-04-04T14:10:01.824Z,99777.79
2019-04-04T14:12:29.569Z,99779.58
2019-04-04T14:15:15.012Z,99765.83
2019-04-04T14:17:43.888Z,99773.20
2019-04-04T14:20:11.928Z,99778.30
2019-04-04T14:22:39.651Z,99652.41
2019-04-04T14:25:07.361Z,99771.11
2019-04-04T14:27:35.303Z,99777.18
2019-04-04T14:30:03.068Z,99774.23
2019-04-04T14:32:30.811Z,99698.40
2019-04-04T14:34:58.600Z,99768.12
2019-04-04T14:37:26.309Z,99759.19
2019-04-04T14:39:54.027Z,99756.19
2019-04-04T14:42:21.762Z,99708.58
2019-04-04T14:44:49.731Z,99759.35
2019-04-04T14:47:25.619Z,99760.60
2019-04-04T14:49:50.671Z,99755.55
2019-04-04T14:52:19.757Z,99760.16
2019-04-04T14:54:48.079Z,99759.95
2019-04-04T14:57:15.796Z,99768.79
2019-04-04T14:59:43.496Z,99764.94
2019-04-04T15:02:11.234Z,99764.42
2019-04-04T15:04:38.935Z,99757.86
2019-04-04T15:07:06.688Z,99745.34
2019-04-04T15:09:34.392Z,99739.62
2019-04-04T15:12:02.103Z,99738.50
2019-04-04T15:14:29.859Z,99721.41
2019-04-04T15:16:57.571Z,99733.59
2019-04-04T15:19:25.310Z,99731.15
2019-04-04T15:21:55.398Z,99729.72
2019-04-04T15:24:34.150Z,99737.47
2019-04-04T15:27:01.879Z,99740.57
2019-04-04T15:29:29.610Z,99745.54
2019-04-04T15:31:57.339Z,99741.09
2019-04-04T15:34:25.046Z,99745.62
2019-04-04T15:36:52.786Z,99747.59
2019-04-04T15:39:20.500Z,99752.98
2019-04-04T15:41:48.223Z,99744.44
2019-04-04T15:44:15.935Z,99731.67
2019-04-04T15:46:43.951Z,99736.47
2019-04-04T15:49:11.760Z,99741.95
2019-04-04T15:51:39.479Z,99747.48
2019-04-04T15:54:07.170Z,99748.14
2019-04-04T15:56:34.924Z,99754.55
2019-04-04T15:59:02.686Z,99758.00
2019-04-04T16:01:41.878Z,99757.35
2019-04-04T16:04:09.632Z,99758.08
2019-04-04T16:06:37.355Z,99756.80
2019-04-04T16:09:06.109Z,99760.96
2019-04-04T16:11:33.868Z,99764.55
2019-04-04T16:14:04.516Z,99758.67
2019-04-04T16:16:32.230Z,99754.36
2019-04-04T16:19:00.070Z,99749.14
2019-04-04T16:21:27.850Z,99746.09
2019-04-04T16:23:55.570Z,99750.10
2019-04-04T16:26:24.567Z,99751.67
2019-04-04T16:28:52.273Z,99758.48
2019-04-04T16:31:23.883Z,99752.10
2019-04-04T16:34:10.542Z,99755.16
2019-04-04T16:37:15.391Z,99759.03
2019-04-04T16:39:47.852Z,99672.91
2019-04-04T16:42:26.731Z,99776.44
2019-04-04T16:44:54.567Z,99776.09
2019-04-04T16:47:22.326Z,99695.23
2019-04-04T16:49:50.492Z,99792.82
2019-04-04T16:52:18.264Z,99795.02
2019-04-04T16:54:46.010Z,99799.33
2019-04-04T16:57:13.739Z,99800.70
2019-04-04T16:59:41.514Z,99772.41
2019-04-04T17:02:09.225Z,99807.92
2019-04-04T17:04:37.874Z,99792.48
2019-04-04T17:07:06.424Z,99806.55
2019-04-04T17:12:43.797Z,99806.66
2019-04-04T17:15:11.539Z,99808.41
2019-04-04T17:17:39.323Z,99810.71
2019-04-04T17:20:07.120Z,99819.57
2019-04-04T17:22:35.103Z,99831.19
2019-04-04T17:25:03.495Z,99836.33
2019-04-04T17:27:32.501Z,99839.64
2019-04-04T17:30:00.298Z,99747.54
2019-04-04T17:32:28.433Z,99844.50
2019-04-04T17:34:56.314Z,99846.44
2019-04-04T17:37:24.053Z,99847.82
2019-04-04T17:39:53.951Z,99854.58
2019-04-04T17:42:30.415Z,99864.57
2019-04-04T17:44:51.741Z,99869.65
2019-04-04T17:47:19.503Z,99888.23
2019-04-04T17:49:47.298Z,99894.33
2019-04-04T17:52:15.047Z,99893.79
2019-04-04T17:54:42.819Z,99908.99
2019-04-04T17:57:10.932Z,99898.59
2019-04-04T17:59:38.718Z,99904.14
2019-04-04T18:02:06.507Z,99914.14
2019-04-04T18:04:34.806Z,99917.30
2019-04-04T18:07:02.634Z,99920.39
2019-04-04T18:09:31.862Z,99924.84
2019-04-04T18:12:00.059Z,99812.53
2019-04-04T18:17:23.303Z,99901.63
2019-04-04T18:19:52.172Z,99933.25
2019-04-04T18:22:20.900Z,99932.06
2019-04-04T18:24:48.794Z,99944.64
2019-04-04T18:27:20.161Z,99952.67
2019-04-04T18:31:14.451Z,99959.49
2019-04-04T18:34:40.736Z,99979.66
2019-04-04T18:36:25.536Z,99933.37
2019-04-04T18:38:54.091Z,99887.23
2019-04-04T18:41:22.107Z,99988.92
2019-04-04T18:43:50.500Z,99986.66
2019-04-04T18:46:18.471Z,99988.30
2019-04-04T18:48:46.517Z,99997.19
2019-04-04T18:51:14.398Z,99995.45
2019-04-04T18:53:42.314Z,99998.25
2019-04-04T18:56:11.134Z,99993.52
2019-04-04T18:58:38.918Z,99990.18
2019-04-04T19:01:06.659Z,99995.91
2019-04-04T19:03:34.403Z,99992.23
2019-04-04T19:06:10.983Z,99996.52
2019-04-04T19:08:38.758Z,99994.98
2019-04-04T19:11:06.647Z,99985.37
2019-04-04T19:13:44.253Z,99977.58
2019-04-04T19:16:04.129Z,99975.55
2019-04-04T19:18:31.850Z,99970.20
2019-04-04T19:20:59.596Z,99968.08
2019-04-04T19:23:27.438Z,99854.81
2019-04-04T19:25:55.286Z,99968.37
2019-04-04T19:28:24.246Z,99960.07
2019-04-04T19:30:52.051Z,99954.50
2019-04-04T19:33:19.850Z,99959.41
2019-04-04T19:35:48.747Z,99963.20
2019-04-04T19:38:16.597Z,99960.03
2019-04-04T19:40:44.330Z,99964.76
2019-04-04T19:43:30.920Z,99961.98
2019-04-04T19:46:10.675Z,99923.99
2019-04-04T19:48:38.488Z,99953.30
2019-04-04T19:51:06.234Z,99951.23
2019-04-04T19:53:33.959Z,99960.69
2019-04-04T19:56:01.682Z,99953.36
2019-04-04T19:58:30.221Z,99953.53
2019-04-04T20:00:59.189Z,99939.89
2019-04-04T20:03:26.963Z,99963.39
2019-04-04T20:05:54.664Z,99966.08
2019-04-04T20:08:24.052Z,99967.44
2019-04-04T20:10:56.377Z,99968.29
2019-04-04T20:13:30.893Z,99974.48
2019-04-04T20:15:53.727Z,99931.39
2019-04-04T20:18:21.438Z,99979.00
2019-04-04T20:20:49.200Z,99980.27
2019-04-04T20:23:17.179Z,99975.11
2019-04-04T20:25:44.911Z,99972.41
2019-04-04T20:28:12.655Z,99971.05
2019-04-04T20:30:40.392Z,99979.12
2019-04-04T20:33:08.157Z,99980.16
2019-04-04T20:35:35.971Z,99977.19
2019-04-04T20:38:03.826Z,99968.65
2019-04-04T20:40:31.539Z,99967.14
2019-04-04T20:42:59.535Z,99965.44
2019-04-04T20:45:27.343Z,99969.02
2019-04-04T20:47:58.966Z,99974.64
2019-04-04T20:50:28.668Z,99967.83
2019-04-04T20:52:56.468Z,99965.05
2019-04-04T20:55:24.210Z,99958.04
2019-04-04T20:57:51.923Z,99959.89
2019-04-04T21:00:19.642Z,99967.27
2019-04-04T21:02:47.602Z,99970.90
2019-04-04T21:05:15.590Z,99962.02
2019-04-04T21:07:43.314Z,99969.55
2019-04-04T21:10:11.035Z,99973.37
2019-04-04T21:12:38.744Z,99967.52
2019-04-04T21:15:06.462Z,99964.38
2019-04-04T21:17:34.177Z,99973.31
2019-04-04T21:20:01.870Z,99977.97
2019-04-04T21:22:29.610Z,99974.79
2019-04-04T21:24:57.323Z,99977.34
2019-04-04T21:27:25.020Z,99982.09
2019-04-04T21:29:53.876Z,99984.56
2019-04-04T21:32:21.932Z,99982.60
2019-04-04T21:34:49.719Z,99984.41
2019-04-04T21:37:17.422Z,99980.95
2019-04-04T21:39:45.150Z,99985.78
2019-04-04T21:42:12.891Z,99983.60
2019-04-04T21:44:40.587Z,99896.13
2019-04-04T21:47:08.446Z,99981.72
2019-04-04T21:49:36.150Z,99986.31
2019-04-04T21:52:03.885Z,99972.89
2019-04-04T21:54:31.703Z,99993.02
2019-04-04T21:56:59.436Z,99997.01
2019-04-04T21:59:27.152Z,99992.02
2019-04-04T22:01:55.081Z,99989.03
2019-04-04T22:04:22.766Z,99907.17
2019-04-04T22:06:50.498Z,99997.91
2019-04-04T22:09:18.380Z,100004.98
2019-04-04T22:11:46.265Z,100003.63
2019-04-04T22:14:21.597Z,100011.77
2019-04-04T22:16:45.187Z,100001.48
2019-04-04T22:19:12.911Z,99997.93
2019-04-04T22:21:40.663Z,100006.13
2019-04-04T22:24:08.458Z,100000.41
2019-04-04T22:26:36.245Z,100005.57
2019-04-04T22:29:04.027Z,100007.98
2019-04-04T22:31:31.740Z,100019.56
2019-04-04T22:33:59.482Z,100018.47
2019-04-04T22:36:27.281Z,100028.53
2019-04-04T22:38:55.091Z,100023.87
2019-04-04T22:41:22.879Z,99988.77
2019-04-04T22:44:02.687Z,99898.66
2019-04-04T22:46:20.141Z,100045.58
2019-04-04T22:48:47.958Z,100045.71
2019-04-04T22:51:15.739Z,100036.20
2019-04-04T22:53:43.504Z,99943.05
2019-04-04T22:56:11.246Z,100056.40
2019-04-04T22:58:38.995Z,100060.45
2019-04-04T23:01:06.794Z,100062.41
2019-04-04T23:03:35.796Z,100061.10
2019-04-04T23:06:03.586Z,100058.73
2019-04-04T23:08:31.364Z,100052.70
2019-04-04T23:10:59.211Z,100044.68
2019-04-04T23:13:26.994Z,100051.25
2019-04-04T23:15:55.127Z,100060.19
2019-04-04T23:18:22.868Z,100067.22
2019-04-04T23:20:50.631Z,100071.74
2019-04-04T23:23:18.368Z,100073.08
2019-04-04T23:25:46.115Z,100063.75
2019-04-04T23:28:13.982Z,100082.12
2019-04-04T23:30:41.846Z,100081.27
2019-04-04T23:33:09.677Z,100082.31
2019-04-04T23:35:37.378Z,100067.00
2019-04-04T23:38:05.139Z,100069.27
2019-04-04T23:40:32.977Z,100061.61
2019-04-04T23:43:00.695Z,100048.19
2019-04-04T23:45:28.483Z,100046.09
2019-04-04T23:47:59.784Z,100048.30
2019-04-04T23:50:27.519Z,100059.03
2019-04-04T23:52:55.250Z,100051.03
2019-04-04T23:55:24.694Z,100049.92
2019-04-04T23:57:52.436Z,100056.61
